Time;durP1;ratioP1;P1;durP2;ratioP2;P2;SDS_P1;SDS_P2;PMS_P1;PMS_P2;Temp;Humidity;BMP_temperature;BMP_pressure;BME280_temperature;BME280_humidity;BME280_pressure;Samples;Min_cycle;Max_cycle;Signal;HPM_P1;HPM_P2
2022/10/01 00:01:53;;;;;;;1.45;0.65;;;14.80;99.90;;;;;;5043628;28;20131;-84
2022/10/01 00:04:20;;;;;;;1.17;0.50;;;14.80;99.90;;;;;;5044213;28;20470;-84
2022/10/01 00:06:48;;;;;;;2.05;1.13;;;14.80;99.90;;;;;;5043646;28;20049;-84
2022/10/01 00:09:15;;;;;;;1.67;0.70;;;14.80;99.90;;;;;;5060434;28;20063;-85
2022/10/01 00:11:44;;;;;;;1.13;0.82;;;14.80;99.90;;;;;;5073653;28;20047;-84
2022/10/01 00:14:11;;;;;;;1.02;0.75;;;14.80;99.90;;;;;;5042928;28;20075;-85
2022/10/01 00:16:38;;;;;;;1.00;0.60;;;14.70;99.90;;;;;;5028829;28;20572;-85
2022/10/01 00:19:09;;;;;;;1.02;0.52;;;14.70;99.90;;;;;;5044480;28;20041;-84
2022/10/01 00:21:36;;;;;;;0.70;0.57;;;14.70;99.90;;;;;;5043323;28;20071;-85
2022/10/01 00:24:03;;;;;;;1.80;0.85;;;14.70;99.90;;;;;;5027643;28;20048;-84
2022/10/01 00:26:32;;;;;;;2.03;0.70;;;14.70;99.90;;;;;;5026287;28;20057;-85
2022/10/01 00:29:03;;;;;;;1.63;0.63;;;14.70;99.90;;;;;;5025203;28;20459;-84
2022/10/01 00:31:30;;;;;;;0.60;0.50;;;14.70;99.90;;;;;;5029501;28;20052;-85
2022/10/01 00:33:59;;;;;;;1.05;0.60;;;14.70;99.90;;;;;;5024820;28;20066;-84
2022/10/01 00:36:26;;;;;;;0.82;0.50;;;14.70;99.90;;;;;;5044042;28;20051;-84
2022/10/01 00:38:59;;;;;;;1.10;0.60;;;14.70;99.90;;;;;;5028789;28;20052;-85
2022/10/01 00:41:31;;;;;;;1.10;0.68;;;14.70;99.90;;;;;;5068647;28;20041;-84
2022/10/01 00:44:01;;;;;;;2.17;0.82;;;14.70;99.90;;;;;;5038444;28;20044;-84
2022/10/01 00:46:37;;;;;;;1.45;0.63;;;14.70;99.90;;;;;;5064265;28;20498;-84
2022/10/01 00:49:13;;;;;;;2.03;0.90;;;14.60;99.90;;;;;;5064055;28;20567;-84
2022/10/01 00:51:44;;;;;;;2.22;0.77;;;14.60;99.90;;;;;;5048887;28;20056;-84
2022/10/01 00:54:23;;;;;;;0.90;0.70;;;14.60;99.90;;;;;;5051219;28;20146;-85
2022/10/01 00:56:53;;;;;;;2.63;1.00;;;14.60;99.90;;;;;;5049180;28;20051;-84
2022/10/01 00:59:21;;;;;;;1.40;0.75;;;14.60;99.90;;;;;;5028883;28;20076;-85
2022/10/01 01:01:49;;;;;;;2.25;0.93;;;14.50;99.90;;;;;;5064192;28;20048;-85
2022/10/01 01:04:16;;;;;;;1.65;0.90;;;14.60;99.90;;;;;;5045066;28;20049;-85
2022/10/01 01:06:47;;;;;;;1.10;0.60;;;14.60;99.90;;;;;;5028631;28;20057;-85
2022/10/01 01:09:14;;;;;;;2.45;0.98;;;14.60;99.90;;;;;;5028189;28;20049;-83
2022/10/01 01:11:56;;;;;;;4.40;1.27;;;14.60;99.90;;;;;;5034914;28;20071;-84
2022/10/01 01:14:53;;;;;;;3.45;1.60;;;14.50;99.90;;;;;;5052316;28;20262;-85
2022/10/01 01:17:27;;;;;;;5.25;1.25;;;14.50;99.90;;;;;;5064132;28;20492;-85
2022/10/01 01:20:41;;;;;;;3.35;1.33;;;14.50;99.90;;;;;;5044755;28;20052;-84
2022/10/01 01:23:14;;;;;;;1.65;0.70;;;14.50;99.90;;;;;;5028792;28;20376;-85
2022/10/01 01:26:00;;;;;;;2.17;0.80;;;14.50;99.90;;;;;;5050346;28;20053;-85
2022/10/01 01:28:36;;;;;;;4.85;0.95;;;14.50;99.90;;;;;;5060888;28;20057;-85
2022/10/01 01:31:10;;;;;;;2.83;0.82;;;14.50;99.90;;;;;;5038868;28;20469;-85
2022/10/01 01:33:39;;;;;;;2.50;1.00;;;14.50;99.90;;;;;;5034864;28;20059;-85
2022/10/01 01:36:34;;;;;;;3.20;1.20;;;14.50;99.90;;;;;;5068292;28;20449;-84
2022/10/01 01:39:05;;;;;;;3.70;0.90;;;14.50;99.90;;;;;;5044464;28;20054;-86
2022/10/01 01:41:34;;;;;;;2.22;1.10;;;14.50;99.90;;;;;;5052128;28;20105;-85
2022/10/01 01:44:03;;;;;;;1.85;0.90;;;14.50;99.90;;;;;;5035204;28;20150;-85
2022/10/01 01:46:32;;;;;;;2.92;1.25;;;14.40;99.90;;;;;;5050783;28;20488;-85
2022/10/01 01:49:00;;;;;;;4.20;1.20;;;14.40;99.90;;;;;;5031984;28;20048;-85
2022/10/01 01:51:31;;;;;;;4.47;1.35;;;14.40;99.90;;;;;;5050031;28;20069;-85
2022/10/01 01:53:59;;;;;;;2.42;1.17;;;14.40;99.90;;;;;;5063649;28;20052;-85
2022/10/01 01:56:26;;;;;;;2.15;0.68;;;14.40;99.90;;;;;;5050527;28;20136;-86
2022/10/01 01:58:53;;;;;;;2.00;0.85;;;14.40;99.90;;;;;;5034754;28;20046;-84
2022/10/01 02:01:43;;;;;;;5.60;1.10;;;14.40;99.90;;;;;;5034790;28;20080;-86
2022/10/01 02:04:45;;;;;;;2.40;1.20;;;14.40;99.90;;;;;;5063685;28;20090;-85
2022/10/01 02:07:25;;;;;;;1.85;1.10;;;14.30;99.90;;;;;;5041481;28;20575;-85
2022/10/01 02:09:55;;;;;;;2.17;0.93;;;14.30;99.90;;;;;;5034298;28;20409;-85
2022/10/01 02:12:30;;;;;;;4.47;1.55;;;14.30;99.90;;;;;;5050406;28;20056;-85
2022/10/01 02:15:20;;;;;;;3.38;1.23;;;14.30;99.90;;;;;;5051390;28;20055;-85
2022/10/01 02:18:02;;;;;;;3.42;1.10;;;14.30;99.90;;;;;;5063620;28;20052;-84
2022/10/01 02:20:42;;;;;;;3.13;1.20;;;14.20;99.90;;;;;;5067437;28;20411;-85
2022/10/01 02:23:12;;;;;;;4.03;1.23;;;14.20;99.90;;;;;;5044928;28;20080;-84
2022/10/01 02:25:42;;;;;;;3.60;1.30;;;14.20;99.90;;;;;;5064411;28;20522;-85
2022/10/01 02:28:10;;;;;;;4.72;1.60;;;14.20;99.90;;;;;;5050708;28;20123;-85
2022/10/01 02:30:38;;;;;;;2.90;1.27;;;14.10;99.90;;;;;;5050012;28;20079;-86
2022/10/01 02:33:07;;;;;;;2.38;1.00;;;14.10;99.90;;;;;;5048602;28;20135;-86
2022/10/01 02:35:34;;;;;;;3.28;1.00;;;14.10;99.90;;;;;;5067853;28;20044;-83
2022/10/01 02:38:03;;;;;;;2.83;0.98;;;14.00;99.90;;;;;;5039100;28;20049;-85
2022/10/01 02:40:31;;;;;;;4.18;1.67;;;14.00;99.90;;;;;;5069037;28;20075;-84
2022/10/01 02:43:02;;;;;;;2.28;0.98;;;14.00;99.90;;;;;;5034383;28;20060;-85
2022/10/01 02:45:30;;;;;;;3.10;0.95;;;13.90;99.90;;;;;;5068922;28;20048;-84
2022/10/01 02:48:03;;;;;;;1.85;0.82;;;13.90;99.90;;;;;;5034083;28;20052;-85
2022/10/01 02:50:34;;;;;;;3.17;0.90;;;13.90;99.90;;;;;;5034193;28;20060;-85
2022/10/01 02:53:06;;;;;;;1.33;0.90;;;13.90;99.90;;;;;;5049134;28;20055;-85
2022/10/01 02:55:35;;;;;;;3.47;1.05;;;13.80;99.90;;;;;;5034013;28;20049;-85
2022/10/01 02:58:02;;;;;;;1.15;0.88;;;13.80;99.90;;;;;;5033444;28;20051;-85
2022/10/01 03:00:29;;;;;;;2.55;1.00;;;13.80;99.90;;;;;;5033424;28;20049;-85
2022/10/01 03:02:56;;;;;;;2.95;0.88;;;13.70;99.90;;;;;;5066244;28;20555;-85
2022/10/01 03:05:24;;;;;;;3.03;1.20;;;13.70;99.90;;;;;;5030880;28;20080;-85
2022/10/01 03:07:51;;;;;;;1.83;0.73;;;13.70;99.90;;;;;;5033819;28;20124;-85
2022/10/01 03:10:19;;;;;;;2.45;0.98;;;13.70;99.90;;;;;;5033702;28;20127;-85
2022/10/01 03:12:46;;;;;;;1.35;0.75;;;13.70;99.90;;;;;;5050701;28;20454;-85
2022/10/01 03:15:14;;;;;;;3.03;1.05;;;13.60;99.90;;;;;;5047524;28;20045;-86
2022/10/01 03:17:42;;;;;;;4.55;1.38;;;13.60;99.90;;;;;;5050294;28;20041;-85
2022/10/01 03:20:09;;;;;;;4.00;1.30;;;13.60;99.90;;;;;;5033798;28;20044;-85
2022/10/01 03:22:36;;;;;;;4.75;1.67;;;13.60;99.90;;;;;;5047417;28;20060;-86
2022/10/01 03:25:03;;;;;;;1.67;0.80;;;13.60;99.90;;;;;;5049837;28;20064;-86
2022/10/01 03:27:32;;;;;;;4.65;1.40;;;13.60;99.90;;;;;;5044634;28;20066;-85
2022/10/01 03:29:59;;;;;;;3.03;1.00;;;13.50;99.90;;;;;;5048912;28;20078;-86
2022/10/01 03:32:26;;;;;;;1.40;0.70;;;13.50;99.90;;;;;;5067892;28;20056;-85
2022/10/01 03:34:53;;;;;;;4.97;1.48;;;13.50;99.90;;;;;;5050601;28;20040;-86
2022/10/01 03:37:21;;;;;;;4.93;1.65;;;13.50;99.90;;;;;;5047879;28;20051;-86
2022/10/01 03:39:48;;;;;;;2.88;1.17;;;13.50;99.90;;;;;;5052614;28;20053;-84
2022/10/01 03:42:15;;;;;;;4.82;1.50;;;13.40;99.90;;;;;;5033873;28;20507;-86
2022/10/01 03:44:43;;;;;;;3.53;1.08;;;13.40;99.90;;;;;;5034139;28;20128;-85
2022/10/01 03:47:10;;;;;;;2.95;0.80;;;13.40;99.90;;;;;;5066619;28;20059;-84
2022/10/01 03:49:37;;;;;;;5.32;1.20;;;13.40;99.90;;;;;;5048809;28;20238;-85
2022/10/01 03:52:05;;;;;;;6.22;2.38;;;13.40;99.90;;;;;;5029874;28;20147;-85
2022/10/01 03:54:32;;;;;;;4.05;1.48;;;13.40;99.90;;;;;;5049852;28;20049;-84
2022/10/01 03:56:59;;;;;;;3.05;1.20;;;13.40;99.90;;;;;;5033846;28;20146;-84
2022/10/01 03:59:28;;;;;;;6.63;1.95;;;13.40;99.90;;;;;;5042076;28;20052;-85
2022/10/01 04:01:55;;;;;;;3.63;1.10;;;13.40;99.90;;;;;;5034425;28;20056;-84
2022/10/01 04:04:22;;;;;;;3.03;1.40;;;13.30;99.90;;;;;;5051144;28;20048;-84
2022/10/01 04:06:49;;;;;;;5.30;1.35;;;13.40;99.90;;;;;;5037140;28;20076;-84
2022/10/01 04:09:16;;;;;;;6.00;1.63;;;13.40;99.90;;;;;;5062106;28;20118;-84
2022/10/01 04:11:44;;;;;;;2.33;1.00;;;13.30;99.90;;;;;;5034403;28;20052;-84
2022/10/01 04:14:13;;;;;;;2.90;1.17;;;13.30;99.90;;;;;;5048433;28;20063;-85
2022/10/01 04:16:40;;;;;;;2.15;1.05;;;13.30;99.90;;;;;;5067780;28;20615;-85
2022/10/01 04:19:06;;;;;;;1.75;0.85;;;13.20;99.90;;;;;;5037182;28;20049;-85
2022/10/01 04:21:35;;;;;;;2.05;0.70;;;13.20;99.90;;;;;;5035584;28;20053;-85
2022/10/01 04:24:04;;;;;;;3.00;1.30;;;13.20;99.90;;;;;;5047914;28;20048;-85
2022/10/01 04:26:30;;;;;;;3.00;1.30;;;13.10;99.90;;;;;;5035562;28;20049;-84
2022/10/01 04:28:57;;;;;;;2.97;1.23;;;13.10;99.90;;;;;;5031387;28;20158;-85
2022/10/01 04:31:24;;;;;;;3.92;0.82;;;13.10;99.90;;;;;;5030709;28;20075;-85
2022/10/01 04:33:52;;;;;;;6.18;1.77;;;13.10;99.90;;;;;;5050536;28;20056;-85
2022/10/01 04:36:20;;;;;;;2.03;1.05;;;13.10;99.90;;;;;;5029093;28;20057;-85
2022/10/01 04:38:50;;;;;;;2.55;1.20;;;13.00;99.90;;;;;;5045872;28;20046;-85
2022/10/01 04:41:17;;;;;;;5.93;1.65;;;13.00;99.90;;;;;;5045287;28;20120;-85
2022/10/01 04:43:44;;;;;;;5.95;1.83;;;13.00;99.90;;;;;;5046909;28;20444;-85
2022/10/01 04:46:13;;;;;;;2.53;1.00;;;13.00;99.90;;;;;;5017664;28;20080;-84
2022/10/01 04:48:40;;;;;;;2.63;0.90;;;13.00;99.90;;;;;;5045866;28;20110;-85
2022/10/01 04:51:07;;;;;;;2.45;1.20;;;13.00;99.90;;;;;;5046831;28;20048;-84
2022/10/01 04:53:34;;;;;;;4.22;1.30;;;13.00;99.90;;;;;;5058820;28;20045;-84
2022/10/01 04:56:01;;;;;;;2.45;1.02;;;13.00;99.90;;;;;;5044841;28;20057;-83
2022/10/01 04:58:28;;;;;;;3.72;1.13;;;13.00;99.90;;;;;;5039168;28;20411;-85
2022/10/01 05:00:55;;;;;;;2.22;0.75;;;12.90;99.90;;;;;;5035001;28;20056;-85
2022/10/01 05:03:27;;;;;;;1.77;0.68;;;12.90;99.90;;;;;;5059727;28;20097;-83
2022/10/01 05:05:54;;;;;;;1.40;0.60;;;12.90;99.90;;;;;;5043952;28;20048;-84
2022/10/01 05:08:22;;;;;;;1.92;0.90;;;12.90;99.90;;;;;;5019118;28;20651;-85
2022/10/01 05:10:49;;;;;;;3.28;1.30;;;12.90;99.90;;;;;;5049480;28;20049;-85
2022/10/01 05:13:16;;;;;;;1.50;0.70;;;12.80;99.90;;;;;;5057326;28;20052;-84
2022/10/01 05:15:43;;;;;;;1.55;0.50;;;12.80;99.90;;;;;;5062022;28;20055;-85
2022/10/01 05:18:10;;;;;;;8.32;1.38;;;12.80;99.90;;;;;;5052516;28;20139;-85
2022/10/01 05:20:37;;;;;;;2.90;1.25;;;12.80;99.90;;;;;;5050600;28;20095;-84
2022/10/01 05:23:04;;;;;;;1.83;0.73;;;12.80;99.90;;;;;;5035608;28;20060;-84
2022/10/01 05:25:32;;;;;;;2.28;0.90;;;12.80;99.90;;;;;;5030891;28;20048;-84
2022/10/01 05:28:03;;;;;;;1.70;0.80;;;12.80;99.90;;;;;;5050043;28;20124;-84
2022/10/01 05:30:31;;;;;;;2.65;1.30;;;12.70;99.90;;;;;;5060958;28;20056;-84
2022/10/01 05:33:03;;;;;;;3.22;1.45;;;12.80;99.90;;;;;;5048526;28;20053;-84
2022/10/01 05:35:30;;;;;;;4.30;1.30;;;12.80;99.90;;;;;;5049846;28;20052;-84
2022/10/01 05:37:58;;;;;;;2.03;0.70;;;12.80;99.90;;;;;;5030998;28;20045;-84
2022/10/01 05:40:27;;;;;;;3.55;0.80;;;12.80;99.90;;;;;;5074385;28;20407;-85
2022/10/01 05:42:55;;;;;;;2.38;1.00;;;12.80;99.90;;;;;;5037208;28;20538;-83
2022/10/01 05:45:23;;;;;;;2.13;1.00;;;12.80;99.90;;;;;;5050413;28;20618;-83
2022/10/01 05:48:01;;;;;;;2.00;0.80;;;12.80;99.90;;;;;;5044670;28;20064;-84
2022/10/01 05:50:32;;;;;;;3.45;0.77;;;12.80;99.90;;;;;;5079193;28;20044;-83
2022/10/01 05:53:00;;;;;;;2.35;0.80;;;12.80;99.90;;;;;;5059778;28;20051;-87
2022/10/01 05:55:32;;;;;;;2.95;0.93;;;12.80;99.90;;;;;;5068632;28;20135;-87
2022/10/01 05:58:01;;;;;;;3.75;1.17;;;12.80;99.90;;;;;;5070911;28;20072;-87
2022/10/01 06:00:28;;;;;;;2.90;1.30;;;12.80;99.90;;;;;;5054143;28;20064;-87
2022/10/01 06:02:56;;;;;;;4.47;1.25;;;12.80;99.90;;;;;;5055561;28;20079;-87
2022/10/01 06:05:24;;;;;;;3.25;0.90;;;12.80;99.90;;;;;;5030462;28;20041;-86
2022/10/01 06:07:52;;;;;;;3.45;0.90;;;12.80;99.90;;;;;;5070477;28;20051;-85
2022/10/01 06:10:19;;;;;;;1.88;0.88;;;12.90;99.90;;;;;;5036728;28;20071;-86
2022/10/01 06:12:47;;;;;;;2.15;0.80;;;12.90;99.90;;;;;;5053098;28;20063;-86
2022/10/01 06:15:15;;;;;;;2.53;1.05;;;12.90;99.90;;;;;;5070806;28;20057;-86
2022/10/01 06:17:44;;;;;;;3.00;1.25;;;12.90;99.90;;;;;;5034432;28;20098;-87
2022/10/01 06:20:16;;;;;;;2.15;0.70;;;12.90;99.90;;;;;;5055438;28;20113;-86
2022/10/01 06:22:43;;;;;;;1.70;0.75;;;12.90;99.90;;;;;;5037543;28;20411;-86
2022/10/01 06:25:14;;;;;;;4.35;1.08;;;12.90;99.90;;;;;;5034072;28;20049;-87
2022/10/01 06:27:41;;;;;;;2.20;0.85;;;12.90;99.90;;;;;;5062877;28;20054;-88
2022/10/01 06:30:09;;;;;;;2.75;1.02;;;12.90;99.90;;;;;;5033030;28;20545;-87
2022/10/01 06:32:36;;;;;;;2.85;1.00;;;12.90;99.90;;;;;;5049810;28;20610;-88
2022/10/01 06:35:04;;;;;;;1.90;0.80;;;12.90;99.90;;;;;;5028788;28;20044;-88
2022/10/01 06:37:31;;;;;;;1.90;0.70;;;13.00;99.90;;;;;;5053834;28;20053;-86
2022/10/01 06:39:59;;;;;;;2.85;0.90;;;13.00;99.90;;;;;;5051738;28;20507;-85
2022/10/01 06:42:25;;;;;;;2.00;0.80;;;13.00;99.90;;;;;;5057600;28;20135;-87
2022/10/01 06:44:52;;;;;;;2.75;1.02;;;13.00;99.90;;;;;;5062014;28;20396;-86
2022/10/01 06:47:19;;;;;;;2.85;0.90;;;13.10;99.90;;;;;;5029411;28;20706;-84
2022/10/01 06:49:47;;;;;;;4.45;1.15;;;13.00;99.90;;;;;;5036872;28;20124;-86
2022/10/01 06:55:01;;;;;;;1.83;0.65;;;13.10;99.90;;;;;;5056916;28;20041;-86
2022/10/01 06:57:28;;;;;;;1.67;0.70;;;13.10;99.90;;;;;;5025452;28;20053;-87
2022/10/01 06:59:56;;;;;;;1.77;0.68;;;13.10;99.90;;;;;;5058663;28;20424;-86
2022/10/01 07:02:27;;;;;;;3.13;1.10;;;13.10;99.90;;;;;;5086422;28;20436;-85
2022/10/01 07:04:58;;;;;;;5.10;0.80;;;13.20;99.90;;;;;;5069417;28;20044;-86
2022/10/01 07:07:30;;;;;;;2.85;0.90;;;13.20;99.90;;;;;;5085133;28;20052;-87
2022/10/01 07:09:58;;;;;;;4.53;1.10;;;13.20;99.90;;;;;;5048379;28;20143;-86
2022/10/01 07:12:25;;;;;;;2.55;1.13;;;13.30;99.90;;;;;;5031487;28;20492;-86
2022/10/01 07:14:53;;;;;;;3.38;1.10;;;13.30;99.90;;;;;;5046116;28;20041;-86
2022/10/01 07:17:21;;;;;;;3.50;0.80;;;13.30;99.90;;;;;;5058611;28;20502;-86
2022/10/01 07:19:47;;;;;;;2.10;0.90;;;13.40;99.90;;;;;;5030584;28;20040;-85
2022/10/01 07:22:16;;;;;;;1.73;0.77;;;13.50;99.90;;;;;;5032962;28;20053;-87
2022/10/01 07:24:44;;;;;;;4.65;1.55;;;13.50;99.90;;;;;;5053983;28;20049;-86
2022/10/01 07:27:12;;;;;;;4.82;1.40;;;13.50;99.90;;;;;;5047831;28;20056;-86
2022/10/01 07:29:40;;;;;;;3.33;1.30;;;13.60;99.90;;;;;;5045034;28;20060;-85
2022/10/01 07:32:09;;;;;;;3.08;1.23;;;13.60;99.90;;;;;;5049617;28;20300;-87
2022/10/01 07:34:39;;;;;;;3.35;1.40;;;13.70;99.90;;;;;;5028668;28;20049;-87
2022/10/01 07:37:06;;;;;;;2.95;0.90;;;13.70;99.90;;;;;;5034863;28;20072;-87
2022/10/01 07:39:34;;;;;;;3.17;1.13;;;13.80;99.90;;;;;;5028102;28;20210;-86
2022/10/01 07:42:01;;;;;;;3.63;0.80;;;13.80;99.90;;;;;;5035007;28;20041;-87
2022/10/01 07:44:30;;;;;;;3.17;1.00;;;13.90;99.90;;;;;;5054402;28;20131;-86
2022/10/01 07:46:57;;;;;;;4.68;1.35;;;13.90;99.90;;;;;;5049574;28;20053;-86
2022/10/01 07:49:24;;;;;;;3.65;1.00;;;14.00;99.90;;;;;;5042749;28;20052;-87
2022/10/01 07:51:53;;;;;;;3.95;1.27;;;14.10;99.90;;;;;;5035944;28;20052;-87
2022/10/01 07:54:21;;;;;;;9.43;2.30;;;14.10;99.90;;;;;;5057977;28;20049;-86
2022/10/01 07:56:50;;;;;;;9.63;2.40;;;14.10;99.90;;;;;;5062074;28;20504;-87
2022/10/01 07:59:18;;;;;;;7.03;1.67;;;14.10;99.90;;;;;;5030298;28;20048;-87
2022/10/01 08:01:50;;;;;;;7.13;2.22;;;14.20;99.90;;;;;;5045949;28;20040;-86
2022/10/01 08:07:07;;;;;;;6.03;1.83;;;14.30;99.90;;;;;;5045592;28;20059;-88
2022/10/01 08:09:34;;;;;;;4.03;1.42;;;14.30;99.90;;;;;;5053651;28;20434;-88
2022/10/01 08:12:04;;;;;;;3.00;1.10;;;14.30;99.90;;;;;;5041805;28;20060;-87
2022/10/01 08:14:31;;;;;;;3.03;1.20;;;14.30;99.90;;;;;;5065990;28;20048;-88
2022/10/01 08:16:58;;;;;;;4.28;1.55;;;14.40;99.90;;;;;;5045536;28;20048;-88
2022/10/01 08:19:26;;;;;;;2.20;0.80;;;14.40;99.90;;;;;;5062586;28;20040;-89
2022/10/01 08:21:57;;;;;;;3.70;1.25;;;14.50;99.90;;;;;;5029114;28;20556;-89
2022/10/01 08:24:25;;;;;;;2.63;1.17;;;14.60;99.90;;;;;;5058793;28;20155;-89
2022/10/01 08:26:54;;;;;;;5.07;1.52;;;14.60;99.90;;;;;;5045334;28;20056;-89
2022/10/01 08:29:21;;;;;;;3.55;1.00;;;14.60;99.90;;;;;;5062818;28;20095;-90
2022/10/01 08:31:49;;;;;;;1.77;1.05;;;14.70;99.90;;;;;;5045949;28;20068;-89
2022/10/01 08:34:16;;;;;;;2.05;0.90;;;14.70;99.90;;;;;;5074762;28;20075;-89
2022/10/01 08:36:43;;;;;;;3.47;1.20;;;14.80;99.90;;;;;;5048918;28;20087;-88
2022/10/01 08:39:13;;;;;;;6.65;1.75;;;14.90;99.90;;;;;;5032571;28;20055;-88
2022/10/01 08:42:07;;;;;;;2.75;1.20;;;15.00;99.90;;;;;;5064886;28;20067;-88
2022/10/01 08:44:45;;;;;;;7.80;2.25;;;15.10;99.90;;;;;;5032698;28;20063;-87
2022/10/01 08:47:16;;;;;;;10.43;3.15;;;15.10;99.90;;;;;;5061050;28;20132;-88
2022/10/01 08:50:14;;;;;;;3.92;1.58;;;15.00;99.90;;;;;;5038622;28;20056;-87
2022/10/01 08:52:48;;;;;;;3.30;1.45;;;15.10;99.90;;;;;;5032826;28;20436;-87
2022/10/01 08:55:21;;;;;;;8.80;2.72;;;15.10;99.90;;;;;;5038542;28;20045;-87
2022/10/01 08:57:57;;;;;;;6.45;2.13;;;15.20;99.90;;;;;;5023589;28;20049;-87
2022/10/01 09:00:31;;;;;;;4.70;1.98;;;15.30;99.90;;;;;;5032259;28;20047;-87
2022/10/01 09:03:02;;;;;;;5.63;1.60;;;15.40;99.90;;;;;;5066875;28;20044;-87
2022/10/01 09:05:54;;;;;;;5.70;2.38;;;15.30;99.90;;;;;;5047258;28;20052;-88
2022/10/01 09:08:42;;;;;;;4.15;1.30;;;15.40;99.90;;;;;;5053503;28;20519;-88
2022/10/01 09:11:52;;;;;;;5.65;1.80;;;15.30;99.90;;;;;;5063285;28;20102;-88
2022/10/01 09:14:37;;;;;;;5.85;1.73;;;15.30;99.90;;;;;;5059383;28;20060;-88
2022/10/01 09:17:23;;;;;;;6.13;1.90;;;15.40;99.90;;;;;;5046655;28;20447;-88
2022/10/01 09:20:25;;;;;;;6.70;1.80;;;15.50;99.90;;;;;;5072792;28;20408;-88
2022/10/01 09:23:14;;;;;;;3.90;1.63;;;15.60;99.90;;;;;;5037759;28;20052;-89
2022/10/01 09:25:41;;;;;;;7.60;1.80;;;15.70;99.90;;;;;;5035099;28;20084;-89
2022/10/01 09:28:30;;;;;;;3.88;1.30;;;15.70;99.90;;;;;;5030211;28;20048;-89
2022/10/01 09:31:10;;;;;;;3.88;1.60;;;15.80;99.90;;;;;;5044374;28;20134;-89
2022/10/01 09:33:40;;;;;;;3.38;1.20;;;16.00;99.90;;;;;;5062270;28;20473;-89
2022/10/01 09:36:26;;;;;;;4.10;1.63;;;16.10;99.90;;;;;;5034296;28;20057;-90
2022/10/01 09:39:06;;;;;;;4.95;1.45;;;16.20;99.90;;;;;;5044053;28;20072;-90
2022/10/01 09:41:32;;;;;;;3.97;1.60;;;16.30;99.90;;;;;;5046869;28;20165;-90
2022/10/01 09:44:00;;;;;;;3.70;1.40;;;16.50;99.90;;;;;;5062841;28;20056;-90
2022/10/01 09:46:27;;;;;;;5.68;1.50;;;16.60;99.90;;;;;;5018047;28;20049;-89
2022/10/01 09:48:58;;;;;;;3.20;1.58;;;16.80;99.90;;;;;;5016023;28;20460;-90
2022/10/01 09:51:47;;;;;;;4.15;1.50;;;16.90;99.90;;;;;;5026973;28;20049;-89
2022/10/01 09:54:31;;;;;;;3.35;1.40;;;16.90;99.90;;;;;;5043027;28;20165;-90
2022/10/01 09:57:13;;;;;;;3.75;1.38;;;16.80;99.90;;;;;;5061482;28;20061;-90
2022/10/01 10:00:01;;;;;;;3.75;1.40;;;16.70;99.90;;;;;;5041154;28;20045;-90
2022/10/01 10:02:31;;;;;;;3.85;1.40;;;16.80;99.90;;;;;;5017295;28;20056;-89
2022/10/01 10:05:09;;;;;;;3.03;1.35;;;16.70;99.90;;;;;;5042137;28;20137;-89
2022/10/01 10:07:38;;;;;;;4.63;1.85;;;16.70;99.90;;;;;;5046053;28;20067;-89
2022/10/01 10:10:27;;;;;;;4.75;1.77;;;16.80;99.90;;;;;;5027942;28;20052;-88
2022/10/01 10:13:04;;;;;;;5.38;2.05;;;16.80;99.90;;;;;;5035814;28;20070;-88
2022/10/01 10:15:31;;;;;;;4.70;1.63;;;16.80;99.90;;;;;;5042784;28;20130;-88
2022/10/01 10:18:15;;;;;;;4.30;1.70;;;16.90;99.90;;;;;;5032984;28;20061;-89
2022/10/01 10:20:50;;;;;;;2.80;1.35;;;17.10;99.90;;;;;;5035716;28;20049;-88
2022/10/01 10:23:22;;;;;;;4.05;1.60;;;17.20;99.90;;;;;;5043788;28;20056;-90
2022/10/01 10:25:59;;;;;;;5.93;1.83;;;17.10;99.90;;;;;;5039662;28;20063;-90
2022/10/01 10:28:27;;;;;;;8.52;2.30;;;17.10;99.90;;;;;;5028984;28;20053;-91
2022/10/01 10:30:54;;;;;;;5.78;1.77;;;16.90;99.90;;;;;;5042636;28;20091;-89
2022/10/01 10:33:25;;;;;;;5.50;1.73;;;17.00;99.90;;;;;;5048001;28;20052;-88
2022/10/01 10:35:59;;;;;;;5.88;2.55;;;17.10;99.90;;;;;;5054519;28;20230;-89
2022/10/01 10:38:29;;;;;;;5.35;1.80;;;17.20;99.90;;;;;;5038474;28;20059;-89
2022/10/01 10:40:56;;;;;;;4.25;2.20;;;17.20;99.90;;;;;;5037178;28;20134;-88
2022/10/01 10:43:26;;;;;;;4.50;1.60;;;17.30;99.90;;;;;;5026883;28;20051;-89
2022/10/01 10:45:56;;;;;;;3.30;1.10;;;17.30;99.90;;;;;;5030822;28;20430;-88
2022/10/01 10:48:27;;;;;;;3.17;1.35;;;17.40;99.90;;;;;;5023917;28;20531;-89
2022/10/01 10:51:03;;;;;;;2.80;1.20;;;17.40;99.90;;;;;;5045352;28;20049;-89
2022/10/01 10:53:39;;;;;;;4.90;1.77;;;17.50;99.90;;;;;;5020403;28;20071;-89
2022/10/01 10:56:13;;;;;;;3.90;1.55;;;17.50;99.90;;;;;;5039243;28;20603;-90
2022/10/01 10:58:41;;;;;;;3.92;1.52;;;17.50;99.90;;;;;;5020883;28;20140;-90
2022/10/01 11:01:12;;;;;;;4.63;1.92;;;17.40;99.90;;;;;;5034871;28;20053;-89
2022/10/01 11:03:52;;;;;;;6.85;2.33;;;17.40;99.90;;;;;;5023386;28;20064;-90
2022/10/01 11:06:19;;;;;;;5.13;1.63;;;17.40;99.90;;;;;;5046932;28;20057;-90
2022/10/01 11:08:56;;;;;;;5.35;1.63;;;17.50;99.90;;;;;;5045715;28;20084;-90
2022/10/01 11:12:04;;;;;;;4.53;1.95;;;17.70;99.90;;;;;;5041131;28;20203;-90
2022/10/01 11:15:15;;;;;;;3.60;1.63;;;17.80;99.90;;;;;;5073808;28;20062;-90
2022/10/01 11:17:54;;;;;;;5.00;1.52;;;18.00;99.90;;;;;;5082215;28;20058;-90
2022/10/01 11:20:24;;;;;;;2.53;1.35;;;18.20;99.90;;;;;;5073539;28;20377;-90
2022/10/01 11:23:09;;;;;;;3.83;1.70;;;18.50;99.90;;;;;;5047624;28;20059;-90
2022/10/01 11:26:02;;;;;;;7.07;1.90;;;18.70;99.90;;;;;;5063480;28;20055;-90
2022/10/01 11:28:33;;;;;;;3.78;1.55;;;18.80;99.90;;;;;;5051103;28;20049;-89
2022/10/01 11:31:07;;;;;;;3.17;1.50;;;18.90;99.90;;;;;;5074988;28;20087;-90
2022/10/01 11:33:46;;;;;;;3.35;1.52;;;19.10;99.90;;;;;;5063045;28;20125;-90
2022/10/01 11:36:23;;;;;;;3.47;1.52;;;19.40;99.90;;;;;;5083703;28;20068;-90
2022/10/01 11:39:01;;;;;;;5.43;2.13;;;19.40;99.90;;;;;;5081565;28;20055;-91
2022/10/01 11:41:38;;;;;;;4.90;1.70;;;19.30;99.90;;;;;;5047254;28;20055;-89
2022/10/01 11:44:15;;;;;;;4.07;1.88;;;19.30;99.90;;;;;;5057051;28;20484;-90
2022/10/01 11:47:04;;;;;;;3.28;1.20;;;19.30;99.90;;;;;;5057139;28;20604;-90
2022/10/01 11:50:07;;;;;;;2.83;1.50;;;19.40;99.90;;;;;;5045558;28;20067;-91
2022/10/01 11:52:41;;;;;;;3.58;1.42;;;19.40;99.90;;;;;;5030122;28;20045;-92
2022/10/01 11:58:53;;;;;;;4.03;1.88;;;19.70;99.90;;;;;;5030397;28;20052;-90
2022/10/01 12:01:23;;;;;;;2.90;1.10;;;19.80;99.90;;;;;;5052903;28;20049;-90
2022/10/01 12:03:53;;;;;;;3.55;1.27;;;19.70;99.90;;;;;;5065990;28;20095;-92
2022/10/01 12:06:44;;;;;;;3.53;1.10;;;19.40;99.90;;;;;;5061647;28;20105;-93
2022/10/01 12:09:20;;;;;;;2.95;1.70;;;19.40;99.90;;;;;;5037740;28;20059;-89
2022/10/01 12:11:46;;;;;;;4.60;1.73;;;19.00;99.90;;;;;;5027002;28;20049;-91
2022/10/01 12:14:18;;;;;;;6.00;1.83;;;18.90;99.90;;;;;;5060733;28;20140;-90
2022/10/01 12:16:55;;;;;;;4.40;1.75;;;18.90;99.90;;;;;;5041469;28;20086;-91
2022/10/01 12:19:27;;;;;;;5.57;1.95;;;19.10;99.90;;;;;;5035732;28;20507;-91
2022/10/01 12:22:20;;;;;;;6.40;2.00;;;19.40;99.90;;;;;;5044383;28;20535;-91
2022/10/01 12:24:50;;;;;;;4.53;1.80;;;19.70;99.90;;;;;;5071570;28;20300;-91
2022/10/01 12:27:42;;;;;;;3.22;1.70;;;19.90;99.90;;;;;;5029132;28;20045;-91
2022/10/01 12:30:20;;;;;;;3.78;1.60;;;20.30;99.90;;;;;;5054260;28;20045;-91
2022/10/01 12:33:18;;;;;;;2.88;1.42;;;20.40;99.90;;;;;;5064245;28;20052;-89
2022/10/01 12:36:17;;;;;;;3.65;1.30;;;20.70;99.90;;;;;;5057076;28;20057;-90
2022/10/01 12:38:57;;;;;;;2.70;1.15;;;20.70;99.90;;;;;;5048221;28;20063;-89
2022/10/01 12:41:30;;;;;;;3.00;1.27;;;20.50;99.90;;;;;;5049527;28;20052;-89
2022/10/01 12:44:09;;;;;;;6.18;1.90;;;20.40;99.90;;;;;;5066788;28;20400;-90
2022/10/01 12:47:14;;;;;;;3.65;1.60;;;20.40;99.90;;;;;;5065463;28;20049;-90
2022/10/01 12:49:46;;;;;;;2.70;1.35;;;20.40;99.90;;;;;;5060286;28;20147;-90
2022/10/01 12:52:40;;;;;;;2.25;1.40;;;20.50;99.90;;;;;;5047589;28;20107;-90
2022/10/01 12:55:16;;;;;;;3.88;1.75;;;21.20;99.90;;;;;;5028787;28;20049;-92
2022/10/01 12:57:49;;;;;;;5.32;1.92;;;21.00;99.90;;;;;;5066756;28;20485;-92
2022/10/01 13:00:24;;;;;;;3.15;1.27;;;21.10;99.90;;;;;;5032129;28;20321;-91
2022/10/01 13:03:17;;;;;;;3.67;1.40;;;20.90;99.90;;;;;;5031347;28;20493;-88
2022/10/01 13:05:59;;;;;;;2.40;1.10;;;20.70;99.90;;;;;;5071828;28;20494;-90
2022/10/01 13:08:44;;;;;;;3.43;1.33;;;20.90;99.90;;;;;;5065465;28;20059;-89
2022/10/01 13:11:10;;;;;;;2.70;1.20;;;21.10;99.90;;;;;;5052557;28;20332;-89
2022/10/01 13:13:39;;;;;;;3.28;1.30;;;21.10;99.90;;;;;;5068130;28;20144;-89
2022/10/01 13:16:19;;;;;;;4.70;1.55;;;20.80;99.90;;;;;;5051501;28;20087;-88
2022/10/01 13:19:29;;;;;;;2.28;1.10;;;20.40;99.90;;;;;;5050918;28;21132;-88
2022/10/01 13:22:21;;;;;;;2.97;1.25;;;20.00;99.90;;;;;;5047824;28;20515;-88
2022/10/01 13:24:52;;;;;;;2.75;1.23;;;19.90;99.90;;;;;;5048022;28;20053;-89
2022/10/01 13:27:37;;;;;;;3.40;1.27;;;19.90;99.90;;;;;;5042727;28;20182;-89